M I D A S
Marine Information and Data Acquisition System
Tripno 765 of the Zeeleeuw from 2004-08-23 06:31:38 to 2004-08-23 10:44:42
Back to CruiseResearch ActivitiesStationsMapUnderway DataData graphs

EquipmentUnitsComments
TimeDGPSUTC
LatitudeDGPSDM.mWGS84
LongitudeDGPSDM.mWGS84
SpeedMeteo Stationm/sRelative wind speed
DirectionMeteo StationdegRelative wind direction
TemperatureMeteo Stationdeg CelciusAir temperature
PressureMeteo StationPaAtmospheric pressure
HumidityMeteo Station%Relative humidity
Missing or incorrect values are displayed as -999
Metereological data collected by the RV Zeeleeuw from 2004-08-23 06:31:38 to 2004-08-23 10:44:42
Time Latitude Longitude Speed Direction Temperature Pressure Humidity
2004-08-23 06:32 51°13.595 2°56.104 3.6 32 14.3 101390 86
2004-08-23 06:33 51°13.617 2°56.016 2 55 14.3 101390 87
2004-08-23 06:34 51°13.649 2°55.908 2.2 81 14.3 101400 87
2004-08-23 06:35 51°13.668 2°55.805 2.6 74 14.3 101400 86
2004-08-23 06:36 51°13.674 2°55.769 5 108 14.3 101390 87
2004-08-23 06:37 51°13.739 2°55.727 1.9 271 14.3 101390 87
2004-08-23 06:39 51°13.846 2°55.607 2.5 70 14.3 101390 87
2004-08-23 06:40 51°13.999 2°55.503 1.9 106 14.3 101390 87
2004-08-23 06:41 51°14.153 2°55.389 1.4 104 14.3 101390 87
2004-08-23 06:42 51°14.32 2°55.147 1.4 16 14.4 101390 87
2004-08-23 06:43 51°14.447 2°54.881 3.2 322 14.3 101390 87
2004-08-23 06:44 51°14.462 2°54.547 5.9 307 14.3 101380 86
2004-08-23 06:45 51°14.403 2°54.197 7.2 300 14.3 101380 86
2004-08-23 06:46 51°14.309 2°53.888 9 304 14.3 101370 86
2004-08-23 06:47 51°14.2 2°53.565 7.8 314 14.3 101360 86
2004-08-23 06:48 51°14.094 2°53.269 8.1 228 14.3 101360 86
2004-08-23 06:49 51°13.986 2°52.969 7.5 302 14.4 101360 87
2004-08-23 06:50 51°13.864 2°52.622 8.2 298 14.3 101360 86
2004-08-23 06:51 51°13.758 2°52.328 7.7 313 14.4 101360 87
2004-08-23 06:52 51°13.649 2°52.031 8.3 304 14.3 101360 86
2004-08-23 06:53 51°13.526 2°51.695 6.4 313 14.4 101360 87
2004-08-23 06:54 51°13.417 2°51.398 5.7 309 14.4 101360 87
2004-08-23 06:56 51°13.286 2°51.036 6.9 315 14.4 101360 87
2004-08-23 06:57 51°13.159 2°50.684 6.5 308 14.4 101370 87
2004-08-23 06:58 51°13.042 2°50.363 6.4 43 14.4 101360 87
2004-08-23 06:59 51°12.933 2°50.065 7 320 14.3 101360 88
2004-08-23 07:00 51°12.819 2°49.752 6.7 315 14.4 101380 88
2004-08-23 07:01 51°12.711 2°49.455 6.8 320 14.3 101370 88
2004-08-23 07:02 51°12.602 2°49.157 7.2 318 14.3 101370 88
2004-08-23 07:03 51°12.493 2°48.858 7.2 315 14.3 101380 89
2004-08-23 07:04 51°12.377 2°48.533 8.2 322 14.3 101380 89
2004-08-23 07:05 51°12.268 2°48.234 8.3 313 14.3 101380 89
2004-08-23 07:06 51°12.155 2°47.925 8.4 318 14.3 101380 89
2004-08-23 07:07 51°12.046 2°47.631 8.4 323 14.3 101380 90
2004-08-23 07:08 51°11.926 2°47.295 8.6 319 14.3 101380 90
2004-08-23 07:09 51°11.818 2°47 7.5 327 14.3 101390 90
2004-08-23 07:10 51°11.703 2°46.672 7.1 41 14.3 101380 90
2004-08-23 07:11 51°11.596 2°46.368 6.7 316 14.2 101380 90
2004-08-23 07:12 51°11.489 2°46.063 8 318 14.2 101370 90
2004-08-23 07:13 51°11.402 2°45.742 6.7 310 14.2 101370 91
2004-08-23 07:14 51°11.34 2°45.41 6.8 228 14.2 101370 91
2004-08-23 07:15 51°11.279 2°45.063 6.1 314 14.1 101370 91
2004-08-23 07:16 51°11.208 2°44.682 6.4 308 14.2 101360 91
2004-08-23 07:17 51°11.145 2°44.328 6.2 227 14.2 101370 92
2004-08-23 07:18 51°11.091 2°43.987 5.4 309 14.2 101370 92
2004-08-23 07:19 51°11.035 2°43.641 5.5 313 14.2 101370 92
2004-08-23 07:20 51°10.972 2°43.249 6.1 228 14.2 101360 92
2004-08-23 07:22 51°10.914 2°42.887 6.5 304 14.2 101360 92
2004-08-23 07:23 51°10.856 2°42.518 4.8 305 14.2 101360 93
2004-08-23 07:24 51°10.797 2°42.142 5.1 302 14.2 101340 93
2004-08-23 07:25 51°10.74 2°41.771 4.7 308 14.3 101340 93
2004-08-23 07:26 51°10.685 2°41.424 4.5 310 14.3 101340 93
2004-08-23 07:27 51°10.632 2°41.076 4.7 314 14.3 101330 93
2004-08-23 07:28 51°10.579 2°40.721 4.6 316 14.3 101340 93
2004-08-23 07:29 51°10.528 2°40.371 4.6 297 14.3 101330 93
2004-08-23 07:30 51°10.47 2°40.001 4.9 307 14.4 101330 93
2004-08-23 07:31 51°10.418 2°39.66 4.7 308 14.5 101320 93
2004-08-23 07:32 51°10.365 2°39.313 3.7 294 14.5 101320 93
2004-08-23 07:33 51°10.313 2°38.965 3.5 284 14.5 101310 92
2004-08-23 07:34 51°10.263 2°38.612 4 299 14.6 101320 93
2004-08-23 07:35 51°10.21 2°38.25 3.3 286 14.7 101310 93
2004-08-23 07:36 51°10.16 2°37.903 4.2 288 14.7 101310 92
2004-08-23 07:37 51°10.106 2°37.554 4.3 287 14.7 101310 92
2004-08-23 07:38 51°10.055 2°37.204 3.3 308 14.7 101300 91
2004-08-23 07:39 51°10.009 2°36.843 1.7 300 14.8 101300 91
2004-08-23 07:40 51°10.006 2°36.492 1.8 276 14.9 101310 91
2004-08-23 07:41 51°10.018 2°36.125 2.2 314 15 101310 91
2004-08-23 07:42 51°10.042 2°35.773 2.4 280 15 101300 90
2004-08-23 07:43 51°10.145 2°35.461 6.4 82 15.1 101310 90
2004-08-23 07:44 51°10.362 2°35.48 12.3 50 15.1 101280 88
2004-08-23 07:45 51°10.568 2°35.643 11.9 52 15.3 101260 86
2004-08-23 07:46 51°10.786 2°35.84 13.4 48 15.3 101260 86
2004-08-23 07:47 51°10.987 2°36.019 13.5 44 15.3 101250 85
2004-08-23 07:48 51°11.246 2°36.243 12.9 51 15.4 101260 85
2004-08-23 07:49 51°11.448 2°36.429 12.7 42 15.4 101260 85
2004-08-23 07:50 51°11.647 2°36.623 13.9 47 15.4 101260 85
2004-08-23 07:51 51°11.841 2°36.818 13 46 15.4 101260 85
2004-08-23 07:52 51°12.029 2°37.024 12.8 47 15.4 101270 84
2004-08-23 07:53 51°12.216 2°37.236 12.2 42 15.4 101260 83
2004-08-23 07:54 51°12.398 2°37.438 12.6 48 15.4 101260 83
2004-08-23 07:55 51°12.59 2°37.65 14 43 15.5 101280 83
2004-08-23 07:56 51°12.78 2°37.856 11.8 43 15.5 101280 83
2004-08-23 07:57 51°12.966 2°38.058 13.2 44 15.6 101280 83
2004-08-23 07:58 51°13.16 2°38.265 12.6 48 15.5 101280 83
2004-08-23 07:59 51°13.35 2°38.469 13.2 51 15.6 101280 83
2004-08-23 08:00 51°13.54 2°38.672 12.3 44 15.5 101280 83
2004-08-23 08:01 51°13.753 2°38.802 8.9 67 15.5 101260 83
2004-08-23 08:02 51°13.98 2°38.765 7.5 88 15.5 101280 83
2004-08-23 08:03 51°14.178 2°38.578 2.9 129 15.5 101290 84
2004-08-23 08:04 51°14.185 2°38.195 5 282 15.5 101310 83
2004-08-23 08:05 51°14.116 2°37.827 5.8 289 15.6 101290 84
2004-08-23 08:06 51°14.012 2°37.501 7.2 289 15.6 101290 84
2004-08-23 08:07 51°13.903 2°37.17 7.2 286 15.6 101290 84
2004-08-23 08:08 51°13.799 2°36.84 6.5 282 15.6 101270 84
2004-08-23 08:09 51°13.694 2°36.512 7.9 294 15.7 101270 84
2004-08-23 08:11 51°13.59 2°36.162 7.3 280 15.7 101280 84
2004-08-23 08:12 51°13.491 2°35.799 8.1 279 15.7 101270 84
2004-08-23 08:13 51°13.394 2°35.447 6.7 290 15.7 101270 83
2004-08-23 08:14 51°13.295 2°35.118 6.7 302 15.7 101270 83
2004-08-23 08:15 51°13.195 2°34.79 6.4 285 15.7 101270 84
2004-08-23 08:16 51°13.104 2°34.474 6 283 15.7 101280 84
2004-08-23 08:17 51°12.999 2°34.137 7.6 279 15.7 101270 83
2004-08-23 08:18 51°12.892 2°33.811 6.5 285 15.7 101280 83
2004-08-23 08:19 51°12.78 2°33.467 7.3 307 15.7 101270 83
2004-08-23 08:20 51°12.649 2°33.064 7.3 298 15.7 101280 83
2004-08-23 08:21 51°12.54 2°32.717 7.7 297 15.7 101290 83
2004-08-23 08:22 51°12.434 2°32.385 7.1 290 15.7 101280 83
2004-08-23 08:23 51°12.329 2°32.061 7.4 293 15.7 101270 83
2004-08-23 08:24 51°12.234 2°31.731 7.4 291 15.7 101260 83
2004-08-23 08:25 51°12.133 2°31.393 6.3 291 15.7 101270 83
2004-08-23 08:26 51°12.036 2°31.058 7.3 315 15.7 101280 84
2004-08-23 08:27 51°11.927 2°30.702 8.4 303 15.6 101300 84
2004-08-23 08:28 51°11.817 2°30.332 8.3 307 15.6 101290 85
2004-08-23 08:29 51°11.713 2°29.976 8 303 15.5 101280 85
2004-08-23 08:30 51°11.604 2°29.605 8.2 295 15.4 101280 85
2004-08-23 08:31 51°11.506 2°29.264 9.2 301 15.4 101270 85
2004-08-23 08:32 51°11.408 2°28.93 8.2 307 15.4 101260 85
2004-08-23 08:33 51°11.307 2°28.585 6.8 295 15.4 101260 85
2004-08-23 08:34 51°11.204 2°28.206 8.9 291 15.4 101260 85
2004-08-23 08:35 51°11.15 2°27.838 6.4 281 15.4 101250 85
2004-08-23 08:36 51°11.137 2°27.46 5.4 282 15.4 101250 85
2004-08-23 08:37 51°11.129 2°27.093 5.4 296 15.4 101230 85
2004-08-23 08:39 51°11.116 2°26.684 3.8 299 15.4 101260 84
2004-08-23 08:40 51°11.104 2°26.3 5.1 280 15.4 101260 84
2004-08-23 08:41 51°11.094 2°25.927 6.4 284 15.5 101250 84
2004-08-23 08:42 51°11.085 2°25.541 5.5 289 15.5 101260 84
2004-08-23 08:43 51°11.149 2°25.143 1.7 99 15.5 101260 84
2004-08-23 08:44 51°11.343 2°24.994 7.4 78 15.6 101250 84
2004-08-23 08:45 51°11.534 2°25.178 13.7 46 15.7 101220 83
2004-08-23 08:46 51°11.693 2°25.435 13.8 46 15.7 101220 83
2004-08-23 08:47 51°11.85 2°25.692 12 56 15.7 101220 82
2004-08-23 08:48 51°12.004 2°25.946 13.6 53 15.8 101210 81
2004-08-23 08:49 51°12.165 2°26.208 12.3 49 15.9 101210 81
2004-08-23 08:50 51°12.336 2°26.441 14.1 53 15.9 101200 80
2004-08-23 08:51 51°12.524 2°26.695 12.2 49 16 101190 81
2004-08-23 08:52 51°12.69 2°26.917 12.4 53 15.9 101200 80
2004-08-23 08:53 51°12.863 2°27.153 13.3 55 15.9 101210 80
2004-08-23 08:54 51°13.057 2°27.396 12.6 54 16 101190 81
2004-08-23 08:55 51°13.234 2°27.608 13.8 49 16 101190 80
2004-08-23 08:56 51°13.415 2°27.824 14.9 49 16 101190 79
2004-08-23 08:57 51°13.598 2°28.042 13.8 59 16.1 101190 80
2004-08-23 08:58 51°13.778 2°28.259 12.7 52 16.1 101190 79
2004-08-23 08:59 51°13.957 2°28.476 12.7 53 16.1 101180 80
2004-08-23 09:00 51°14.136 2°28.691 11.8 63 16.1 101190 80
2004-08-23 09:01 51°14.314 2°28.909 11.5 65 16.1 101180 80
2004-08-23 09:02 51°14.495 2°29.12 13.1 57 16.2 101190 80
2004-08-23 09:03 51°14.679 2°29.327 13 60 16.2 101180 81
2004-08-23 09:04 51°14.861 2°29.534 12.7 55 16.3 101190 81
2004-08-23 09:05 51°15.044 2°29.74 13.3 57 16.3 101180 80
2004-08-23 09:06 51°15.228 2°29.944 13.2 60 16.3 101170 79
2004-08-23 09:07 51°15.411 2°30.15 12.2 55 16.3 101170 79
2004-08-23 09:08 51°15.608 2°30.366 11.5 60 16.2 101190 79
2004-08-23 09:09 51°15.793 2°30.57 12.5 68 16.2 101180 79
2004-08-23 09:10 51°15.991 2°30.792 12 50 16.3 101190 80
2004-08-23 09:11 51°16.177 2°30.998 12.5 54 16.3 101180 79
2004-08-23 09:12 51°16.363 2°31.206 12.3 62 16.3 101180 79
2004-08-23 09:13 51°16.563 2°31.425 13.3 56 16.3 101190 80
2004-08-23 09:14 51°16.759 2°31.643 11.8 58 16.3 101180 79
2004-08-23 09:15 51°16.945 2°31.85 12.7 57 16.3 101180 79
2004-08-23 09:16 51°17.146 2°32.074 12.1 64 16.3 101180 79
2004-08-23 09:17 51°17.344 2°32.295 12.9 59 16.4 101170 79
2004-08-23 09:18 51°17.548 2°32.514 13.2 60 16.4 101180 79
2004-08-23 09:19 51°17.74 2°32.731 13 61 16.4 101170 79
2004-08-23 09:20 51°17.922 2°32.93 12.1 53 16.5 101180 79
2004-08-23 09:21 51°18.108 2°33.132 13.1 51 16.4 101180 79
2004-08-23 09:22 51°18.286 2°33.326 13.2 60 16.5 101180 80
2004-08-23 09:23 51°18.474 2°33.53 13.2 62 16.5 101180 79
2004-08-23 09:24 51°18.653 2°33.721 11.9 58 16.5 101180 80
2004-08-23 09:25 51°18.837 2°33.919 11.5 56 16.5 101180 79
2004-08-23 09:26 51°19.028 2°34.121 12.2 60 16.5 101180 79
2004-08-23 09:27 51°19.214 2°34.32 12.8 56 16.5 101180 79
2004-08-23 09:28 51°19.39 2°34.506 12.7 54 16.4 101180 78
2004-08-23 09:29 51°19.574 2°34.701 13.1 59 16.5 101180 78
2004-08-23 09:30 51°19.74 2°34.952 11.9 44 16.5 101170 78
2004-08-23 09:31 51°19.888 2°35.208 14.3 49 16.5 101170 79
2004-08-23 09:32 51°20.03 2°35.449 12.6 53 16.5 101180 77
2004-08-23 09:33 51°20.173 2°35.713 14.9 44 16.5 101180 79
2004-08-23 09:34 51°20.285 2°36.028 14.3 40 16.5 101180 77
2004-08-23 09:35 51°20.384 2°36.371 14.2 40 16.6 101180 78
2004-08-23 09:36 51°20.475 2°36.683 13.2 37 16.6 101180 78
2004-08-23 09:37 51°20.568 2°36.992 14.2 40 16.6 101180 79
2004-08-23 09:38 51°20.654 2°37.299 14.9 34 16.6 101170 79
2004-08-23 09:39 51°20.673 2°37.635 15.5 26 16.6 101180 79
2004-08-23 09:41 51°20.66 2°38.004 16 23 16.7 101170 79
2004-08-23 09:42 51°20.644 2°38.338 16.4 26 16.8 101190 79
2004-08-23 09:43 51°20.628 2°38.677 16.1 23 16.7 101180 78
2004-08-23 09:44 51°20.61 2°39.021 15.3 18 16.8 101180 78
2004-08-23 09:45 51°20.593 2°39.36 16.2 24 16.8 101180 78
2004-08-23 09:46 51°20.577 2°39.696 16.1 21 16.8 101190 78
2004-08-23 09:47 51°20.563 2°40.04 15.3   16.7 101190 77
2004-08-23 09:48 51°20.534 2°40.38 14.9 24 16.8 101190 78
2004-08-23 09:49 51°20.509 2°40.721 14.8 21 16.8 101180 78
2004-08-23 09:50 51°20.483 2°41.06 14.8 25 16.8 101180 78
2004-08-23 09:51 51°20.459 2°41.397 14.7 25 16.8 101190 77
2004-08-23 09:52 51°20.434 2°41.731 15.7   16.8 101190 77
2004-08-23 09:53 51°20.409 2°42.069 14.8 25 16.8 101180 78
2004-08-23 09:54 51°20.385 2°42.395 15.9 25 16.8 101180 78
2004-08-23 09:55 51°20.359 2°42.73 15 21 16.8 101190 78
2004-08-23 09:56 51°20.332 2°43.08 15 20 16.8 101190 79
2004-08-23 09:57 51°20.306 2°43.421 16.7 19 16.8 101190 79
2004-08-23 09:58 51°20.281 2°43.761 15.1 23 16.8 101180 79
2004-08-23 09:59 51°20.256 2°44.095 15.9 24 16.8 101190 78
2004-08-23 10:00 51°20.226 2°44.472 15.4 18 16.8 101170 78
2004-08-23 10:01 51°20.196 2°44.806 15.6 25 16.8 101180 78
2004-08-23 10:02 51°20.165 2°45.141 14.6 24 16.9 101180 79
2004-08-23 10:03 51°20.135 2°45.517 14.5 24 16.9 101180 78
2004-08-23 10:04 51°20.108 2°45.851 14.8 21 16.9 101190 79
2004-08-23 10:05 51°20.081 2°46.176 14.8 23 16.9 101190 79
2004-08-23 10:06 51°20.019 2°46.484 14 22 16.9 101200 78
2004-08-23 10:07 51°19.935 2°46.815 14 16 17.1 101190 79
2004-08-23 10:08 51°19.857 2°47.133 14.7 18 17.1 101190 79
2004-08-23 10:09 51°19.772 2°47.479 14 25 17.1 101180 78
2004-08-23 10:10 51°19.694 2°47.791 13.7 23 17.2 101180 77
2004-08-23 10:11 51°19.614 2°48.105 13.7 20 17.3 101190 78
2004-08-23 10:12 51°19.531 2°48.424 13.5 25 17.2 101190 77
2004-08-23 10:13 51°19.452 2°48.746 13.1 17 17.3 101180 77
2004-08-23 10:14 51°19.374 2°49.062 13.4 21 17.4 101170 78
2004-08-23 10:15 51°19.299 2°49.372 13.9 24 17.5 101180 77
2004-08-23 10:16 51°19.219 2°49.691 12.8 21 17.6 101180 76
2004-08-23 10:17 51°19.138 2°49.992 14.7 17 17.7 101180 76
2004-08-23 10:18 51°19.023 2°50.279 12.8 12 17.7 101190 75
2004-08-23 10:19 51°18.908 2°50.57 13.7 16 17.8 101180 75
2004-08-23 10:20 51°18.785 2°50.88 13.5 18 17.9 101180 76
2004-08-23 10:21 51°18.644 2°51.169 14.5 17 17.9 101170 75
2004-08-23 10:22 51°18.462 2°51.379 15.3 7 17.9 101180 75
2004-08-23 10:23 51°18.273 2°51.556 14.6 7 17.9 101160 75
2004-08-23 10:24 51°18.076 2°51.733 14.7 9 17.9 101170 74
2004-08-23 10:25 51°17.871 2°51.923 14.4 8 18 101160 74
2004-08-23 10:26 51°17.655 2°52.126 13.7 7 18 101160 74
2004-08-23 10:27 51°17.476 2°52.301 13.2 11 18 101170 75
2004-08-23 10:28 51°17.271 2°52.491 13.4 3 18.1 101160 76
2004-08-23 10:29 51°17.047 2°52.601 12.6 357 18.1 101160 75
2004-08-23 10:30 51°16.821 2°52.665 12.9 2 18.1 101170 75
2004-08-23 10:31 51°16.593 2°52.749 15.4 359 18.2 101160 75
2004-08-23 10:32 51°16.367 2°52.831 13.9 4 18.4 101160 73
2004-08-23 10:33 51°16.15 2°52.943 12.5 1 18.5 101170 73
2004-08-23 10:34 51°15.937 2°53.053 12.8 6 18.5 101160 73
2004-08-23 10:35 51°15.704 2°53.194 12.2 14 18.6 101170 73
2004-08-23 10:36 51°15.502 2°53.351 13.8 11 18.6 101150 72
2004-08-23 10:37 51°15.301 2°53.563 14.3 18 18.8 101150 71
2004-08-23 10:39 51°15.096 2°53.772 12.2 17 18.9 101160 70
2004-08-23 10:40 51°14.89 2°54.014 11.9 17 19 101170 71
2004-08-23 10:41 51°14.745 2°54.234 9.8 25 19.1 101160 71
2004-08-23 10:42 51°14.62 2°54.413 13.7 22 19.2 101160 70
2004-08-23 10:43 51°14.5 2°54.656 11.6 20 19.3 101170 70
2004-08-23 10:44 51°14.415 2°54.92 9.6 14 19.4 101160 69